Portada
METAR-TAF:

METAR-TAF

Aeropuertos :

Capo Mele

Andora, Italia

latitud: 43-57N, longitud: 008-10E, altitud: 220 m

Observación

El informe se hizo hace 26 minutos, a las 11:55 UTC
Viento 6 kt del suroeste
Temperatura 18°C
Humedad 37%
Presión 1020 hPa
Visibilidad 10 km o más
sin nubes por debajo de 1500 m y sin presencia de cumulonimbus.

METAR: LIMU 041155Z 22006KT CAVOK 18/03 Q1020 RMK SKC QUK 1 QUL 1 SE VIS MAR 30 KM VIS MIN 9999

Hora: 14:21 (12:21 UTC)


TAF: falta

Observaciones y pronósticos meteorológicos de más de 4000 aeropuertos (mensajes METAR y TAF).

Los puntos amarillos y rojos representan las estaciones disponibles.

Ponga el ratón en el punto deseado para ver el nombre de la estación.

Haga clic para ver las observaciones y los pronósticos meteorológicos.

Para cambiar el mapa : haga clic en los botones verdes con una cruz de color negro para hacer un zoom, en el botón verde con un guión para alejar o en las flechas verdes para mapas adyacentes.


METAR-TAF: